sensor_id;sensor_type;location;lat;lon;timestamp;pressure;altitude;pressure_sealevel;temperature;humidity
9899;BME280;4988;49.238;6.698;2022-11-15T00:01:06;98733.50;;;11.03;100.00
9899;BME280;4988;49.238;6.698;2022-11-15T00:03:32;98727.56;;;10.98;100.00
9899;BME280;4988;49.238;6.698;2022-11-15T00:06:02;98733.03;;;10.94;100.00
9899;BME280;4988;49.238;6.698;2022-11-15T00:08:32;98728.06;;;10.88;100.00
9899;BME280;4988;49.238;6.698;2022-11-15T00:10:59;98720.91;;;10.89;100.00
9899;BME280;4988;49.238;6.698;2022-11-15T00:13:25;98727.28;;;10.86;100.00
9899;BME280;4988;49.238;6.698;2022-11-15T00:15:50;98726.41;;;10.86;100.00
9899;BME280;4988;49.238;6.698;2022-11-15T00:18:16;98726.66;;;10.81;100.00
9899;BME280;4988;49.238;6.698;2022-11-15T00:20:42;98727.59;;;10.80;100.00
9899;BME280;4988;49.238;6.698;2022-11-15T00:23:08;98730.03;;;10.85;100.00
9899;BME280;4988;49.238;6.698;2022-11-15T00:25:33;98731.91;;;10.83;100.00
9899;BME280;4988;49.238;6.698;2022-11-15T00:28:00;98732.78;;;10.83;100.00
9899;BME280;4988;49.238;6.698;2022-11-15T00:30:26;98731.84;;;10.84;100.00
9899;BME280;4988;49.238;6.698;2022-11-15T00:32:52;98729.94;;;10.86;100.00
9899;BME280;4988;49.238;6.698;2022-11-15T00:35:17;98723.34;;;10.93;100.00
9899;BME280;4988;49.238;6.698;2022-11-15T00:37:43;98730.72;;;10.88;100.00
9899;BME280;4988;49.238;6.698;2022-11-15T00:40:09;98725.25;;;10.91;100.00
9899;BME280;4988;49.238;6.698;2022-11-15T00:42:35;98720.59;;;10.95;100.00
9899;BME280;4988;49.238;6.698;2022-11-15T00:45:00;98726.19;;;10.90;100.00
9899;BME280;4988;49.238;6.698;2022-11-15T00:47:25;98724.91;;;10.98;100.00
9899;BME280;4988;49.238;6.698;2022-11-15T00:49:50;98713.47;;;10.96;100.00
9899;BME280;4988;49.238;6.698;2022-11-15T00:52:16;98714.41;;;10.94;100.00
9899;BME280;4988;49.238;6.698;2022-11-15T00:54:41;98700.66;;;11.02;100.00
9899;BME280;4988;49.238;6.698;2022-11-15T00:57:06;98716.13;;;10.96;100.00
9899;BME280;4988;49.238;6.698;2022-11-15T00:59:32;98700.06;;;10.97;100.00
9899;BME280;4988;49.238;6.698;2022-11-15T01:01:57;98707.19;;;10.97;100.00
9899;BME280;4988;49.238;6.698;2022-11-15T01:04:22;98708.13;;;10.96;100.00
9899;BME280;4988;49.238;6.698;2022-11-15T01:06:47;98710.00;;;10.93;100.00
9899;BME280;4988;49.238;6.698;2022-11-15T01:09:13;98718.94;;;10.92;100.00
9899;BME280;4988;49.238;6.698;2022-11-15T01:11:39;98716.63;;;10.86;100.00
9899;BME280;4988;49.238;6.698;2022-11-15T01:14:04;98718.53;;;10.84;100.00
9899;BME280;4988;49.238;6.698;2022-11-15T01:16:29;98719.38;;;10.85;100.00
9899;BME280;4988;49.238;6.698;2022-11-15T01:18:55;98706.16;;;10.83;100.00
9899;BME280;4988;49.238;6.698;2022-11-15T01:21:20;98711.00;;;10.75;100.00
9899;BME280;4988;49.238;6.698;2022-11-15T01:23:45;98711.81;;;10.77;100.00
9899;BME280;4988;49.238;6.698;2022-11-15T01:26:13;98706.63;;;10.74;100.00
9899;BME280;4988;49.238;6.698;2022-11-15T01:28:41;98708.34;;;10.75;100.00
9899;BME280;4988;49.238;6.698;2022-11-15T01:31:13;98709.72;;;10.66;100.00
9899;BME280;4988;49.238;6.698;2022-11-15T01:33:39;98702.91;;;10.60;100.00
9899;BME280;4988;49.238;6.698;2022-11-15T01:36:11;98698.91;;;10.69;100.00
9899;BME280;4988;49.238;6.698;2022-11-15T01:38:37;98698.81;;;10.71;100.00
9899;BME280;4988;49.238;6.698;2022-11-15T01:41:02;98704.91;;;10.73;100.00
9899;BME280;4988;49.238;6.698;2022-11-15T01:43:31;98700.28;;;10.76;100.00
9899;BME280;4988;49.238;6.698;2022-11-15T01:46:06;98696.88;;;10.74;100.00
9899;BME280;4988;49.238;6.698;2022-11-15T01:48:36;98696.16;;;10.71;100.00
9899;BME280;4988;49.238;6.698;2022-11-15T01:51:06;98697.25;;;10.67;100.00
9899;BME280;4988;49.238;6.698;2022-11-15T01:53:33;98690.75;;;10.72;100.00
9899;BME280;4988;49.238;6.698;2022-11-15T01:56:03;98690.25;;;10.82;100.00
9899;BME280;4988;49.238;6.698;2022-11-15T01:58:29;98679.84;;;10.77;100.00
9899;BME280;4988;49.238;6.698;2022-11-15T02:00:55;98672.97;;;10.73;100.00
9899;BME280;4988;49.238;6.698;2022-11-15T02:03:22;98677.44;;;10.72;100.00
9899;BME280;4988;49.238;6.698;2022-11-15T02:05:51;98667.81;;;10.70;100.00
9899;BME280;4988;49.238;6.698;2022-11-15T02:08:18;98664.38;;;10.68;100.00
9899;BME280;4988;49.238;6.698;2022-11-15T02:10:46;98665.25;;;10.68;100.00
9899;BME280;4988;49.238;6.698;2022-11-15T02:13:14;98665.25;;;10.68;100.00
9899;BME280;4988;49.238;6.698;2022-11-15T02:15:53;98668.50;;;10.73;100.00
9899;BME280;4988;49.238;6.698;2022-11-15T02:18:32;98669.34;;;10.74;100.00
9899;BME280;4988;49.238;6.698;2022-11-15T02:21:28;98669.53;;;10.71;100.00
9899;BME280;4988;49.238;6.698;2022-11-15T02:37:57;98658.91;;;10.71;100.00
9899;BME280;4988;49.238;6.698;2022-11-15T02:43:09;98656.47;;;10.66;100.00
9899;BME280;4988;49.238;6.698;2022-11-15T02:45:59;98661.09;;;10.62;100.00
9899;BME280;4988;49.238;6.698;2022-11-15T02:48:27;98663.75;;;10.62;100.00
9899;BME280;4988;49.238;6.698;2022-11-15T02:50:53;98651.25;;;10.65;100.00
9899;BME280;4988;49.238;6.698;2022-11-15T02:53:23;98655.78;;;10.62;100.00
9899;BME280;4988;49.238;6.698;2022-11-15T02:55:51;98646.94;;;10.62;100.00
9899;BME280;4988;49.238;6.698;2022-11-15T03:01:23;98650.78;;;10.56;100.00
9899;BME280;4988;49.238;6.698;2022-11-15T03:06:53;98632.75;;;10.61;100.00
9899;BME280;4988;49.238;6.698;2022-11-15T03:09:30;98636.31;;;10.62;100.00
9899;BME280;4988;49.238;6.698;2022-11-15T03:12:14;98638.88;;;10.64;100.00
9899;BME280;4988;49.238;6.698;2022-11-15T03:14:54;98634.50;;;10.62;100.00
9899;BME280;4988;49.238;6.698;2022-11-15T03:17:35;98628.38;;;10.60;100.00
9899;BME280;4988;49.238;6.698;2022-11-15T03:20:05;98627.19;;;10.66;100.00
9899;BME280;4988;49.238;6.698;2022-11-15T03:22:35;98621.97;;;10.65;100.00
9899;BME280;4988;49.238;6.698;2022-11-15T03:25:06;98625.66;;;10.62;100.00
9899;BME280;4988;49.238;6.698;2022-11-15T03:27:37;98621.78;;;10.68;100.00
9899;BME280;4988;49.238;6.698;2022-11-15T03:30:06;98622.91;;;10.64;100.00
9899;BME280;4988;49.238;6.698;2022-11-15T03:32:40;98624.03;;;10.59;100.00
9899;BME280;4988;49.238;6.698;2022-11-15T03:35:11;98615.16;;;10.59;100.00
9899;BME280;4988;49.238;6.698;2022-11-15T03:40:44;98615.34;;;10.56;100.00
9899;BME280;4988;49.238;6.698;2022-11-15T03:43:15;98615.41;;;10.54;100.00
9899;BME280;4988;49.238;6.698;2022-11-15T03:45:48;98623.56;;;10.51;100.00
9899;BME280;4988;49.238;6.698;2022-11-15T03:48:20;98607.59;;;10.51;100.00
9899;BME280;4988;49.238;6.698;2022-11-15T03:50:47;98614.72;;;10.51;100.00
9899;BME280;4988;49.238;6.698;2022-11-15T03:53:13;98608.53;;;10.50;100.00
9899;BME280;4988;49.238;6.698;2022-11-15T03:55:39;98608.53;;;10.50;100.00
9899;BME280;4988;49.238;6.698;2022-11-15T03:58:04;98606.91;;;10.48;100.00
9899;BME280;4988;49.238;6.698;2022-11-15T04:00:30;98602.53;;;10.46;100.00
9899;BME280;4988;49.238;6.698;2022-11-15T04:02:55;98605.44;;;10.42;100.00
9899;BME280;4988;49.238;6.698;2022-11-15T04:05:21;98602.47;;;10.30;100.00
9899;BME280;4988;49.238;6.698;2022-11-15T04:07:46;98612.50;;;10.25;100.00
9899;BME280;4988;49.238;6.698;2022-11-15T04:10:11;98604.06;;;10.17;100.00
9899;BME280;4988;49.238;6.698;2022-11-15T04:12:40;98602.28;;;10.18;100.00
9899;BME280;4988;49.238;6.698;2022-11-15T04:15:12;98592.81;;;10.12;100.00
9899;BME280;4988;49.238;6.698;2022-11-15T04:17:44;98603.16;;;10.01;100.00
9899;BME280;4988;49.238;6.698;2022-11-15T04:20:12;98603.47;;;9.94;100.00
9899;BME280;4988;49.238;6.698;2022-11-15T04:22:57;98600.13;;;9.91;100.00
9899;BME280;4988;49.238;6.698;2022-11-15T04:25:42;98601.25;;;9.87;100.00
9899;BME280;4988;49.238;6.698;2022-11-15T04:28:09;98602.16;;;9.86;100.00
9899;BME280;4988;49.238;6.698;2022-11-15T04:30:34;98598.63;;;9.85;100.00
9899;BME280;4988;49.238;6.698;2022-11-15T04:32:59;98606.69;;;9.84;100.00
9899;BME280;4988;49.238;6.698;2022-11-15T04:35:25;98610.38;;;9.81;100.00
9899;BME280;4988;49.238;6.698;2022-11-15T04:37:50;98610.38;;;9.81;100.00
9899;BME280;4988;49.238;6.698;2022-11-15T04:40:15;98606.00;;;9.80;100.00
9899;BME280;4988;49.238;6.698;2022-11-15T04:42:41;98611.63;;;9.74;100.00
9899;BME280;4988;49.238;6.698;2022-11-15T04:45:08;98617.88;;;9.73;100.00
9899;BME280;4988;49.238;6.698;2022-11-15T04:47:33;98617.13;;;9.71;100.00
9899;BME280;4988;49.238;6.698;2022-11-15T04:49:58;98609.13;;;9.71;100.00
9899;BME280;4988;49.238;6.698;2022-11-15T04:52:24;98618.19;;;9.66;100.00
9899;BME280;4988;49.238;6.698;2022-11-15T04:54:49;98616.16;;;9.72;100.00
9899;BME280;4988;49.238;6.698;2022-11-15T04:57:14;98607.56;;;9.66;100.00
9899;BME280;4988;49.238;6.698;2022-11-15T04:59:40;98610.22;;;9.66;100.00
9899;BME280;4988;49.238;6.698;2022-11-15T05:02:05;98603.13;;;9.67;100.00
9899;BME280;4988;49.238;6.698;2022-11-15T05:04:30;98606.53;;;9.69;100.00
9899;BME280;4988;49.238;6.698;2022-11-15T05:06:56;98604.16;;;9.64;100.00
9899;BME280;4988;49.238;6.698;2022-11-15T05:09:21;98605.13;;;9.62;100.00
9899;BME280;4988;49.238;6.698;2022-11-15T05:11:47;98595.69;;;9.56;100.00
9899;BME280;4988;49.238;6.698;2022-11-15T05:14:13;98599.28;;;9.55;100.00
9899;BME280;4988;49.238;6.698;2022-11-15T05:16:39;98595.69;;;9.56;100.00
9899;BME280;4988;49.238;6.698;2022-11-15T05:19:05;98597.72;;;9.51;100.00
9899;BME280;4988;49.238;6.698;2022-11-15T05:21:31;98600.38;;;9.51;100.00
9899;BME280;4988;49.238;6.698;2022-11-15T05:23:57;98597.03;;;9.47;100.00
9899;BME280;4988;49.238;6.698;2022-11-15T05:26:22;98594.28;;;9.49;100.00
9899;BME280;4988;49.238;6.698;2022-11-15T05:28:55;98594.09;;;9.52;100.00
9899;BME280;4988;49.238;6.698;2022-11-15T05:31:21;98589.81;;;9.49;100.00
9899;BME280;4988;49.238;6.698;2022-11-15T05:33:48;98591.53;;;9.50;100.00
9899;BME280;4988;49.238;6.698;2022-11-15T05:36:21;98595.13;;;9.49;100.00
9899;BME280;4988;49.238;6.698;2022-11-15T05:38:50;98595.13;;;9.49;100.00
9899;BME280;4988;49.238;6.698;2022-11-15T05:41:17;98592.47;;;9.49;100.00
9899;BME280;4988;49.238;6.698;2022-11-15T05:43:44;98591.72;;;9.47;100.00
9899;BME280;4988;49.238;6.698;2022-11-15T05:46:10;98584.59;;;9.48;100.00
9899;BME280;4988;49.238;6.698;2022-11-15T05:48:36;98581.06;;;9.47;100.00
9899;BME280;4988;49.238;6.698;2022-11-15T05:51:03;98582.94;;;9.45;100.00
9899;BME280;4988;49.238;6.698;2022-11-15T05:53:30;98586.44;;;9.46;100.00
9899;BME280;4988;49.238;6.698;2022-11-15T05:55:55;98583.72;;;9.47;100.00
9899;BME280;4988;49.238;6.698;2022-11-15T05:58:21;98582.47;;;9.37;100.00
9899;BME280;4988;49.238;6.698;2022-11-15T06:00:46;98582.84;;;9.29;100.00
9899;BME280;4988;49.238;6.698;2022-11-15T06:03:12;98584.34;;;9.35;100.00
9899;BME280;4988;49.238;6.698;2022-11-15T06:05:39;98580.69;;;9.38;100.00
9899;BME280;4988;49.238;6.698;2022-11-15T06:08:04;98583.09;;;9.42;100.00
9899;BME280;4988;49.238;6.698;2022-11-15T06:10:30;98576.94;;;9.42;100.00
9899;BME280;4988;49.238;6.698;2022-11-15T06:12:59;98570.59;;;9.44;100.00
9899;BME280;4988;49.238;6.698;2022-11-15T06:15:24;98575.06;;;9.44;100.00
9899;BME280;4988;49.238;6.698;2022-11-15T06:17:49;98577.72;;;9.44;100.00
9899;BME280;4988;49.238;6.698;2022-11-15T06:20:15;98573.25;;;9.44;100.00
9899;BME280;4988;49.238;6.698;2022-11-15T06:22:40;98568.16;;;9.40;100.00
9899;BME280;4988;49.238;6.698;2022-11-15T06:25:06;98579.97;;;9.34;100.00
9899;BME280;4988;49.238;6.698;2022-11-15T06:27:31;98573.72;;;9.35;100.00
9899;BME280;4988;49.238;6.698;2022-11-15T06:29:56;98577.84;;;9.23;100.00
9899;BME280;4988;49.238;6.698;2022-11-15T06:32:21;98583.47;;;9.17;100.00
9899;BME280;4988;49.238;6.698;2022-11-15T06:34:47;98577.06;;;9.21;100.00
9899;BME280;4988;49.238;6.698;2022-11-15T06:37:12;98584.00;;;9.24;100.00
9899;BME280;4988;49.238;6.698;2022-11-15T06:39:37;98590.63;;;9.15;100.00
9899;BME280;4988;49.238;6.698;2022-11-15T06:42:03;98576.59;;;9.13;100.00
9899;BME280;4988;49.238;6.698;2022-11-15T06:44:28;98585.31;;;9.15;100.00
9899;BME280;4988;49.238;6.698;2022-11-15T06:46:53;98584.69;;;9.10;100.00
9899;BME280;4988;49.238;6.698;2022-11-15T06:49:19;98582.03;;;9.10;100.00
9899;BME280;4988;49.238;6.698;2022-11-15T06:51:44;98586.25;;;9.14;100.00
9899;BME280;4988;49.238;6.698;2022-11-15T06:54:09;98584.25;;;9.19;100.00
9899;BME280;4988;49.238;6.698;2022-11-15T06:56:34;98594.22;;;9.14;100.00
9899;BME280;4988;49.238;6.698;2022-11-15T06:59:00;98593.38;;;9.13;100.00
9899;BME280;4988;49.238;6.698;2022-11-15T07:01:25;98593.16;;;9.18;100.00
9899;BME280;4988;49.238;6.698;2022-11-15T07:03:50;98591.22;;;9.22;100.00
9899;BME280;4988;49.238;6.698;2022-11-15T07:06:16;98594.59;;;9.25;100.00
9899;BME280;4988;49.238;6.698;2022-11-15T07:08:41;98588.34;;;9.26;100.00
9899;BME280;4988;49.238;6.698;2022-11-15T07:11:07;98586.44;;;9.28;100.00
9899;BME280;4988;49.238;6.698;2022-11-15T07:13:33;98585.59;;;9.28;100.00
9899;BME280;4988;49.238;6.698;2022-11-15T07:16:06;98588.97;;;9.31;100.00
9899;BME280;4988;49.238;6.698;2022-11-15T07:18:34;98586.44;;;9.28;100.00
9899;BME280;4988;49.238;6.698;2022-11-15T07:21:02;98589.00;;;9.30;100.00
9899;BME280;4988;49.238;6.698;2022-11-15T07:23:27;98586.06;;;9.36;100.00
9899;BME280;4988;49.238;6.698;2022-11-15T07:25:52;98582.53;;;9.36;100.00
9899;BME280;4988;49.238;6.698;2022-11-15T07:28:18;98586.34;;;9.30;100.00
9899;BME280;4988;49.238;6.698;2022-11-15T07:30:43;98586.44;;;9.28;100.00
9899;BME280;4988;49.238;6.698;2022-11-15T07:33:08;98593.88;;;9.22;100.00
9899;BME280;4988;49.238;6.698;2022-11-15T07:35:34;98586.63;;;9.25;100.00
9899;BME280;4988;49.238;6.698;2022-11-15T07:38:01;98586.34;;;9.30;100.00
9899;BME280;4988;49.238;6.698;2022-11-15T07:40:28;98594.03;;;9.36;100.00
9899;BME280;4988;49.238;6.698;2022-11-15T07:43:02;98589.19;;;9.44;100.00
9899;BME280;4988;49.238;6.698;2022-11-15T07:45:28;98587.94;;;9.52;100.00
9899;BME280;4988;49.238;6.698;2022-11-15T07:47:54;98587.63;;;9.58;100.00
9899;BME280;4988;49.238;6.698;2022-11-15T07:50:24;98584.75;;;9.62;100.00
9899;BME280;4988;49.238;6.698;2022-11-15T07:52:54;98580.91;;;9.68;100.00
9899;BME280;4988;49.238;6.698;2022-11-15T07:55:20;98578.78;;;9.75;100.00
9899;BME280;4988;49.238;6.698;2022-11-15T07:57:46;98579.28;;;9.83;100.00
9899;BME280;4988;49.238;6.698;2022-11-15T08:00:11;98585.09;;;9.90;100.00
9899;BME280;4988;49.238;6.698;2022-11-15T08:02:37;98579.78;;;9.90;100.00
9899;BME280;4988;49.238;6.698;2022-11-15T08:05:02;98586.75;;;9.92;100.00
9899;BME280;4988;49.238;6.698;2022-11-15T08:07:29;98583.16;;;9.93;100.00
9899;BME280;4988;49.238;6.698;2022-11-15T08:09:55;98581.09;;;9.98;100.00
9899;BME280;4988;49.238;6.698;2022-11-15T08:12:21;98575.69;;;10.00;100.00
9899;BME280;4988;49.238;6.698;2022-11-15T08:14:46;98581.66;;;10.05;100.00
9899;BME280;4988;49.238;6.698;2022-11-15T08:17:12;98573.50;;;10.08;100.00
9899;BME280;4988;49.238;6.698;2022-11-15T08:19:37;98570.94;;;10.07;100.00
9899;BME280;4988;49.238;6.698;2022-11-15T08:22:02;98574.97;;;10.14;100.00
9899;BME280;4988;49.238;6.698;2022-11-15T08:24:28;98569.66;;;10.14;100.00
9899;BME280;4988;49.238;6.698;2022-11-15T08:26:53;98569.38;;;10.19;100.00
9899;BME280;4988;49.238;6.698;2022-11-15T08:29:18;98558.59;;;10.22;100.00
9899;BME280;4988;49.238;6.698;2022-11-15T08:31:44;98559.53;;;10.21;100.00
9899;BME280;4988;49.238;6.698;2022-11-15T08:34:09;98558.34;;;10.26;100.00
9899;BME280;4988;49.238;6.698;2022-11-15T08:36:35;98557.25;;;10.30;100.00
9899;BME280;4988;49.238;6.698;2022-11-15T08:39:00;98555.59;;;10.28;100.00
9899;BME280;4988;49.238;6.698;2022-11-15T08:41:34;98557.25;;;10.30;100.00
9899;BME280;4988;49.238;6.698;2022-11-15T08:44:01;98554.28;;;10.37;100.00
9899;BME280;4988;49.238;6.698;2022-11-15T08:46:26;98545.34;;;10.38;100.00
9899;BME280;4988;49.238;6.698;2022-11-15T08:48:51;98555.19;;;10.36;100.00
9899;BME280;4988;49.238;6.698;2022-11-15T08:51:17;98549.84;;;10.37;100.00
9899;BME280;4988;49.238;6.698;2022-11-15T08:53:42;98556.78;;;10.40;100.00
9899;BME280;4988;49.238;6.698;2022-11-15T08:56:09;98553.78;;;10.46;100.00
9899;BME280;4988;49.238;6.698;2022-11-15T08:58:35;98548.38;;;10.48;100.00
9899;BME280;4988;49.238;6.698;2022-11-15T09:01:01;98549.16;;;10.50;100.00
9899;BME280;4988;49.238;6.698;2022-11-15T09:03:26;98554.97;;;10.56;100.00
9899;BME280;4988;49.238;6.698;2022-11-15T09:05:56;98552.22;;;10.58;100.00
9899;BME280;4988;49.238;6.698;2022-11-15T09:08:22;98559.19;;;10.60;100.00
9899;BME280;4988;49.238;6.698;2022-11-15T09:10:47;98551.19;;;10.60;100.00
9899;BME280;4988;49.238;6.698;2022-11-15T09:13:13;98554.47;;;10.66;100.00
9899;BME280;4988;49.238;6.698;2022-11-15T09:15:39;98547.19;;;10.69;100.00
9899;BME280;4988;49.238;6.698;2022-11-15T09:18:04;98547.69;;;10.76;100.00
9899;BME280;4988;49.238;6.698;2022-11-15T09:20:29;98551.19;;;10.76;100.00
9899;BME280;4988;49.238;6.698;2022-11-15T09:22:59;98545.72;;;10.80;100.00
9899;BME280;4988;49.238;6.698;2022-11-15T09:25:24;98537.28;;;10.87;100.00
9899;BME280;4988;49.238;6.698;2022-11-15T09:27:49;98523.59;;;10.93;100.00
9899;BME280;4988;49.238;6.698;2022-11-15T09:30:15;98518.88;;;10.99;100.00
9899;BME280;4988;49.238;6.698;2022-11-15T09:32:40;98517.41;;;11.09;100.00
9899;BME280;4988;49.238;6.698;2022-11-15T09:35:06;98510.94;;;11.13;100.00
9899;BME280;4988;49.238;6.698;2022-11-15T09:37:32;98512.41;;;11.19;100.00
9899;BME280;4988;49.238;6.698;2022-11-15T09:39:57;98514.69;;;11.25;100.00
9899;BME280;4988;49.238;6.698;2022-11-15T09:45:27;98511.56;;;11.33;100.00
9899;BME280;4988;49.238;6.698;2022-11-15T09:50:45;98499.41;;;11.43;100.00
9899;BME280;4988;49.238;6.698;2022-11-15T09:53:22;98495.03;;;11.42;100.00
9899;BME280;4988;49.238;6.698;2022-11-15T09:56:03;98492.84;;;11.49;100.00
9899;BME280;4988;49.238;6.698;2022-11-15T09:58:44;98482.78;;;11.54;100.00
9899;BME280;4988;49.238;6.698;2022-11-15T10:01:34;98472.78;;;11.57;100.00
9899;BME280;4988;49.238;6.698;2022-11-15T10:04:01;98468.78;;;11.65;100.00
9899;BME280;4988;49.238;6.698;2022-11-15T10:06:27;98461.75;;;11.64;100.00
9899;BME280;4988;49.238;6.698;2022-11-15T10:09:11;98470.69;;;11.63;100.00
9899;BME280;4988;49.238;6.698;2022-11-15T10:11:39;98466.22;;;11.63;100.00
9899;BME280;4988;49.238;6.698;2022-11-15T10:14:24;98475.84;;;11.66;100.00
9899;BME280;4988;49.238;6.698;2022-11-15T10:22:34;98457.56;;;12.03;100.00
9899;BME280;4988;49.238;6.698;2022-11-15T10:25:24;98456.34;;;12.09;100.00
9899;BME280;4988;49.238;6.698;2022-11-15T10:28:28;98445.34;;;12.13;100.00
9899;BME280;4988;49.238;6.698;2022-11-15T10:30:49;98444.56;;;12.26;100.00
9899;BME280;4988;49.238;6.698;2022-11-15T10:33:30;98438.28;;;12.27;100.00
9899;BME280;4988;49.238;6.698;2022-11-15T10:36:19;98428.19;;;12.32;100.00
9899;BME280;4988;49.238;6.698;2022-11-15T10:41:14;98417.84;;;12.40;100.00
9899;BME280;4988;49.238;6.698;2022-11-15T10:43:40;98415.66;;;12.47;100.00
9899;BME280;4988;49.238;6.698;2022-11-15T10:46:36;98405.44;;;12.39;100.00
9899;BME280;4988;49.238;6.698;2022-11-15T10:49:14;98404.31;;;12.43;100.00
9899;BME280;4988;49.238;6.698;2022-11-15T10:51:52;98402.09;;;12.50;100.00
9899;BME280;4988;49.238;6.698;2022-11-15T10:54:33;98385.88;;;12.53;100.00
9899;BME280;4988;49.238;6.698;2022-11-15T10:57:00;98380.31;;;12.56;100.00
9899;BME280;4988;49.238;6.698;2022-11-15T10:59:35;98378.72;;;12.53;100.00
9899;BME280;4988;49.238;6.698;2022-11-15T11:02:01;98364.19;;;12.58;100.00
9899;BME280;4988;49.238;6.698;2022-11-15T11:04:26;98365.06;;;12.58;100.00
9899;BME280;4988;49.238;6.698;2022-11-15T11:06:59;98365.41;;;12.66;100.00
9899;BME280;4988;49.238;6.698;2022-11-15T11:09:31;98354.06;;;12.63;100.00
9899;BME280;4988;49.238;6.698;2022-11-15T11:11:58;98352.72;;;12.70;100.00
9899;BME280;4988;49.238;6.698;2022-11-15T11:14:26;98348.63;;;12.64;100.00
9899;BME280;4988;49.238;6.698;2022-11-15T11:17:13;98348.50;;;12.66;100.00
9899;BME280;4988;49.238;6.698;2022-11-15T11:22:55;98339.34;;;12.70;100.00
9899;BME280;4988;49.238;6.698;2022-11-15T11:26:02;98332.63;;;12.77;100.00
9899;BME280;4988;49.238;6.698;2022-11-15T11:28:57;98332.75;;;12.89;100.00
9899;BME280;4988;49.238;6.698;2022-11-15T11:31:46;98324.63;;;12.90;100.00
9899;BME280;4988;49.238;6.698;2022-11-15T11:34:31;98320.88;;;12.93;100.00
9899;BME280;4988;49.238;6.698;2022-11-15T11:37:11;98329.09;;;12.90;100.00
9899;BME280;4988;49.238;6.698;2022-11-15T11:40:08;98315.53;;;12.93;100.00
9899;BME280;4988;49.238;6.698;2022-11-15T11:47:46;98305.69;;;12.93;100.00
9899;BME280;4988;49.238;6.698;2022-11-15T11:50:19;98293.44;;;13.03;100.00
9899;BME280;4988;49.238;6.698;2022-11-15T11:53:12;98281.34;;;13.11;100.00
9899;BME280;4988;49.238;6.698;2022-11-15T11:55:45;98277.19;;;13.19;100.00
9899;BME280;4988;49.238;6.698;2022-11-15T11:58:16;98278.13;;;13.18;100.00
9899;BME280;4988;49.238;6.698;2022-11-15T12:00:49;98271.41;;;13.26;100.00
9899;BME280;4988;49.238;6.698;2022-11-15T12:03:30;98260.91;;;13.23;98.90
9899;BME280;4988;49.238;6.698;2022-11-15T12:06:36;98264.34;;;13.25;98.79
9899;BME280;4988;49.238;6.698;2022-11-15T12:14:24;98244.44;;;13.29;96.27
9899;BME280;4988;49.238;6.698;2022-11-15T12:16:50;98237.59;;;13.25;95.56
9899;BME280;4988;49.238;6.698;2022-11-15T12:19:16;98238.25;;;13.15;95.87
9899;BME280;4988;49.238;6.698;2022-11-15T12:21:53;98237.59;;;13.25;96.17
9899;BME280;4988;49.238;6.698;2022-11-15T12:24:33;98226.16;;;13.23;96.22
9899;BME280;4988;49.238;6.698;2022-11-15T12:27:08;98212.06;;;13.21;96.68
9899;BME280;4988;49.238;6.698;2022-11-15T12:29:41;98214.31;;;13.27;95.85
9899;BME280;4988;49.238;6.698;2022-11-15T12:32:38;98214.31;;;13.27;97.61
9899;BME280;4988;49.238;6.698;2022-11-15T12:35:27;98215.34;;;13.37;96.57
9899;BME280;4988;49.238;6.698;2022-11-15T12:37:57;98210.78;;;13.39;96.08
9899;BME280;4988;49.238;6.698;2022-11-15T12:45:42;98202.50;;;13.42;94.52
9899;BME280;4988;49.238;6.698;2022-11-15T12:50:53;98199.38;;;13.48;95.46
9899;BME280;4988;49.238;6.698;2022-11-15T12:58:47;98189.00;;;13.57;96.10
9899;BME280;4988;49.238;6.698;2022-11-15T13:06:54;98173.34;;;13.63;95.10
9899;BME280;4988;49.238;6.698;2022-11-15T13:17:29;98141.41;;;13.73;94.29
9899;BME280;4988;49.238;6.698;2022-11-15T13:22:40;98129.75;;;13.74;94.56
9899;BME280;4988;49.238;6.698;2022-11-15T13:33:35;98112.50;;;13.78;94.30
9899;BME280;4988;49.238;6.698;2022-11-15T13:36:18;98112.25;;;13.81;93.53
9899;BME280;4988;49.238;6.698;2022-11-15T13:38:44;98103.63;;;13.78;94.18
9899;BME280;4988;49.238;6.698;2022-11-15T13:41:20;98100.56;;;13.71;93.94
9899;BME280;4988;49.238;6.698;2022-11-15T13:43:47;98095.72;;;13.76;94.30
9899;BME280;4988;49.238;6.698;2022-11-15T13:46:15;98089.88;;;13.71;94.64
9899;BME280;4988;49.238;6.698;2022-11-15T13:48:42;98082.94;;;13.69;95.05
9899;BME280;4988;49.238;6.698;2022-11-15T13:53:46;98068.97;;;13.76;94.71
9899;BME280;4988;49.238;6.698;2022-11-15T13:56:15;98071.88;;;13.73;94.95
9899;BME280;4988;49.238;6.698;2022-11-15T13:58:43;98060.06;;;13.76;94.61
9899;BME280;4988;49.238;6.698;2022-11-15T14:01:15;98056.34;;;13.78;94.84
9899;BME280;4988;49.238;6.698;2022-11-15T14:03:57;98052.44;;;13.82;93.80
9899;BME280;4988;49.238;6.698;2022-11-15T14:06:28;98047.22;;;13.81;93.90
9899;BME280;4988;49.238;6.698;2022-11-15T14:09:03;98042.72;;;13.81;94.33
9899;BME280;4988;49.238;6.698;2022-11-15T14:11:29;98043.19;;;13.75;95.58
9899;BME280;4988;49.238;6.698;2022-11-15T14:16:37;98026.78;;;13.80;95.19
9899;BME280;4988;49.238;6.698;2022-11-15T14:19:05;98024.13;;;13.80;94.86
9899;BME280;4988;49.238;6.698;2022-11-15T14:21:31;98032.16;;;13.80;95.35
9899;BME280;4988;49.238;6.698;2022-11-15T14:24:17;98028.25;;;13.84;94.74
9899;BME280;4988;49.238;6.698;2022-11-15T14:26:43;98018.63;;;13.81;94.44
9899;BME280;4988;49.238;6.698;2022-11-15T14:29:30;98018.41;;;13.85;94.94
9899;BME280;4988;49.238;6.698;2022-11-15T14:32:12;98017.06;;;13.79;94.76
9899;BME280;4988;49.238;6.698;2022-11-15T14:34:39;98011.31;;;13.72;94.77
9899;BME280;4988;49.238;6.698;2022-11-15T14:37:04;98007.06;;;13.70;94.67
9899;BME280;4988;49.238;6.698;2022-11-15T14:39:30;98008.16;;;13.67;95.02
9899;BME280;4988;49.238;6.698;2022-11-15T14:41:55;97997.94;;;13.61;95.46
9899;BME280;4988;49.238;6.698;2022-11-15T14:44:20;98002.44;;;13.60;95.77
9899;BME280;4988;49.238;6.698;2022-11-15T14:46:46;98008.88;;;13.58;96.44
9899;BME280;4988;49.238;6.698;2022-11-15T14:49:13;98006.41;;;13.55;96.65
9899;BME280;4988;49.238;6.698;2022-11-15T14:51:40;98007.38;;;13.54;97.28
9899;BME280;4988;49.238;6.698;2022-11-15T14:54:09;97998.88;;;13.48;97.46
9899;BME280;4988;49.238;6.698;2022-11-15T14:56:34;97997.78;;;13.51;97.59
9899;BME280;4988;49.238;6.698;2022-11-15T14:58:59;97995.38;;;13.48;97.80
9899;BME280;4988;49.238;6.698;2022-11-15T15:01:25;97986.47;;;13.47;97.73
9899;BME280;4988;49.238;6.698;2022-11-15T15:03:52;97990.13;;;13.46;98.03